AirNav   Everest Fuels
 
 531 users online  

KFHK Knox Army Heliport
Fort Rucker/Ozark, Alabama, USA

GOING TO FORT RUCKER/OZARK?


FAA INFORMATION EFFECTIVE 10 SEPTEMBER 2020

Location

FAA Identifier: FHK
Lat/Long: 31-19-00.6180N 085-39-59.7670W
31-19.010300N 085-39.996117W
31.3168383,-85.6666019
(estimated)
Elevation: 225 ft. / 69 m (estimated)
Variation: 00E (1985)
From city: 5 miles SE of central business district of the associated city
Time zone: UTC -5 (UTC -6 during Standard Time)
Zip code: 36362

Heliport Operations

Heliport use: Private use. Permission required prior to landing
Activation date: 04/1982
Control tower: yes
ARTCC: JACKSONVILLE CENTER
FSS: ANNISTON FLIGHT SERVICE STATION
NOTAMs facility: OZR (NOTAM-D service available)
Attendance: MON-FRI 1230-1800
Segmented circle: no

Heliport Communications

CTAF: 348.525
KNOX TOWER: 140.5 387.85 [1400-2300Z++MON-FRI, EXC HOL.]
CAIRNS APPROACH: 125.4
CAIRNS DEPARTURE: 125.4
CLEARANCE DELIVERY: 118.075 380.1
WX ASOS at DHN (11 nm E): PHONE 334-983-5999
WX AWOS-3PT at EDN (12 nm W): 118.9 (334-347-3524)
  • APCH/DEP SVC PRVDD BY JACKSONVILLE ARTCC ON FREQS 134.3/353.5 (DOTHAN RCAG) WHEN CAIRNS APCH CLSD.
  • OPR 1400-2300Z++, EXC HOL. OT UNATTENDED.

Nearby radio navigation aids

VOR radial/distance  VOR name  Freq  Var
HEYr195/(3.5)HANCHEY VOR110.6003W
OZRr050/4.2CAIRNS VOR/DME111.2003W
EDNr087/(12.2)ENTERPRISE VOR116.6003W
RRSr277/12.2WIREGRASS VORTAC111.6002E

 
NDB name  Hdg/Dist  Freq  Var  ID
HANCHEY193/3.622103WHYE .... -.-- .
LOWE127/4.826903WLOR .-.. --- .-.
RUCKR057/9.421203WOZ --- --..
BOLL WEEVIL098/16.235203WBVG -... ...- --.
SOYYA322/35.032902WSMY ... -- -.--
JUDD091/37.126402WJUY .--- ..- -.--
BLOOD148/38.136504WTOI - --- ..

Heliport Services

Runway Information

Helipad H1

Dimensions: 1800 x 50 ft. / 549 x 15 m
Surface: asphalt
Traffic pattern: leftleft

Helipad H2

Dimensions: 1800 x 50 ft. / 549 x 15 m
Surface: asphalt
Traffic pattern: leftleft

Helipad H3

Dimensions: 1800 x 50 ft. / 549 x 15 m
Surface: asphalt
Traffic pattern: leftleft

Helipad H4

Dimensions: 1800 x 50 ft. / 549 x 15 m
Surface: asphalt
Traffic pattern: leftleft

Helipad H5

Dimensions: 1800 x 50 ft. / 549 x 15 m
Surface: asphalt
Traffic pattern: leftleft

Helipad H6

Dimensions: 1800 x 50 ft. / 549 x 15 m
Surface: asphalt
Traffic pattern: leftleft

Heliport Ownership and Management from official FAA records

Ownership: U.S. Army
Owner: US ARMY KNOX ARMY HELIPAD
9325 GUNSTON ROAD
FT BELVOIR, VA 22060

Additional Remarks

CAUTION: EXTV COPTER TRNG IN PROGRESS. W TFC LANES 1 THRU 6 USAR USE LANES 1 & 2 STU PLT TRNG USE LANES 3, 4, 5, & 6.
EXTV NGT TRNG TUE AND THU.

Instrument Procedures

There are no published instrument procedures at KFHK.

Some nearby airports with instrument procedures:

KHEY - Hanchey Army Heliport (Fort Rucker) (2 nm N)
KOZR - Cairns Army Airfield (Fort Rucker) (3 nm SW)
KLOR - Lowe Army Heliport (Fort Rucker) (5 nm NW)
71J - Ozark-Blackwell Field Airport (7 nm N)
KDHN - Dothan Regional Airport (11 nm E)
KEDN - Enterprise Municipal Airport (12 nm W)
0J6 - Headland Municipal Airport (18 nm E)
33J - Geneva Municipal Airport (19 nm SW)
 
Loc | Ops | Rwys | IFR | FBO | Links
Com | Nav | Svcs | Stats | Notes

Continental Services
AirBoss

 
Area around KFHK (Knox Army Heliport)
 
Road maps at: MapQuest Bing Google
 
Aerial photo
WARNING: Photo may not be current or correct
Aerial photo of KFHK (Knox Army Heliport)
Do you have a better or more recent aerial photo of Knox Army Heliport that you would like to share? If so, please send us your photo.

 
Sectional chart

 
Airport distance calculator
Flying to Knox Army Heliport? Find the distance to fly.

From to KFHK

Sunrise and sunset
Times for 21-Sep-2020
 Local
(UTC-5)
 Zulu
(UTC)
Morning civil twilight06:0811:08
Sunrise06:3211:32
Sunset18:3923:39
Evening civil twilight19:0300:03

Current date and time
Zulu (UTC)  21-Sep-2020 06:25:34
Local (UTC-5)  21-Sep-2020 01:25:34
 
METAR
KHEY 
2nm N 
210558Z AUTO 08014G19KT 10SM FEW095 BKN160 20/14 A3017 RMK AO2 SLP217 T01950142 10201 20195 402090165 58006
KOZR 
3nm SW 
210556Z 06012KT 10SM FEW100 19/14 A3017 RMK AO2A SLP217 T01880143 10195 20188 402150161 58005 $
KLOR 
5nm NW 
210558Z AUTO 05005KT 10SM FEW085 BKN220 19/14 A3018 RMK AO2 SLP202 T01880141 10195 20188 402040162 58006
KSXS 
10nm W 
210558Z AUTO 09009KT 10SM BKN220 19/14 A3017 RMK AO2 SLP217 T01850144 10191 20184 402100160 58005
KDHN 
11nm E 
210553Z AUTO 06014G18KT 10SM FEW095 19/14 A3022 RMK AO2 SLP228 T01940144 10200 20194 58004
KEDN 
12nm W 
210555Z AUTO 06004KT 10SM OVC090 19/14 A3018 RMK AO2 LTG DSNT SW T01870142 10193 20187
TAF
KDHN 
11nm E 
210535Z 2106/2206 06012KT P6SM OVC090 FM211200 07015G23KT P6SM BKN100
NOTAMs
Click for the latest NOTAMs
NOTAMs are issued by the DoD/FAA and will open in a separate window not controlled by AirNav.

 

 
 

Would you like to see your business listed on this page?

 If your business provides an interesting product or service to pilots, flight crews, aircraft, or users of the Knox Army Heliport, you should consider listing it here.  To start the listing process, click on the button below
 
Add a business
 

Other Pages about Knox Army Heliport

Update a link
 
Copyright © AirNav, LLC. All rights reserved. Privacy Policy  Contact